Time;durP1;ratioP1;P1;durP2;ratioP2;P2;SDS_P1;SDS_P2;PMS_P1;PMS_P2;Temp;Humidity;BMP_temperature;BMP_pressure;BME280_temperature;BME280_humidity;BME280_pressure;Samples;Min_cycle;Max_cycle;Signal;HPM_P1;HPM_P2
2023/11/16 00:01:56;;;;;;;4.03;2.60;;;;;;;;;;5014514;28;20041;-62
2023/11/16 00:04:22;;;;;;;2.88;2.67;;;;;;;;;;5014559;28;20454;-62
2023/11/16 00:06:47;;;;;;;2.35;2.25;;;;;;;;;;5014268;28;20465;-63
2023/11/16 00:09:12;;;;;;;2.78;2.58;;;;;;;;;;4996050;28;20045;-62
2023/11/16 00:11:38;;;;;;;2.47;2.28;;;;;;;;;;5014501;28;20025;-56
2023/11/16 00:14:08;;;;;;;2.70;1.75;;;;;;;;;;5022961;23;20201;-56
2023/11/16 00:16:35;;;;;;;1.75;1.65;;;;;;;;;;5025884;23;20494;-56
2023/11/16 00:19:02;;;;;;;2.42;1.67;;;;;;;;;;5018822;23;20065;-92
2023/11/16 00:21:27;;;;;;;2.00;1.88;;;;;;;;;;4989332;28;20034;-91
2023/11/16 00:23:53;;;;;;;2.03;1.90;;;;;;;;;;4994121;28;20535;-91
2023/11/16 00:26:19;;;;;;;1.98;1.88;;;;;;;;;;4971849;28;20073;-91
2023/11/16 00:28:54;;;;;;;2.13;1.80;;;;;;;;;;4995060;28;20033;-92
2023/11/16 00:31:20;;;;;;;1.60;1.50;;;;;;;;;;4994261;28;20062;-93
2023/11/16 00:33:46;;;;;;;2.05;1.83;;;;;;;;;;4975808;28;20018;-93
2023/11/16 00:36:11;;;;;;;2.22;1.98;;;;;;;;;;4971319;28;20030;-92
2023/11/16 00:38:38;;;;;;;2.60;2.15;;;;;;;;;;4995641;28;20027;-91
2023/11/16 00:41:06;;;;;;;2.25;2.00;;;;;;;;;;4974158;28;20039;-91
2023/11/16 00:43:34;;;;;;;2.47;2.28;;;;;;;;;;4997999;28;20053;-92
2023/11/16 00:46:04;;;;;;;3.53;2.60;;;;;;;;;;4997716;28;20030;-92
2023/11/16 00:48:32;;;;;;;4.85;2.60;;;;;;;;;;4997782;28;20436;-93
2023/11/16 00:50:58;;;;;;;2.92;2.60;;;;;;;;;;4997782;28;20036;-92
2023/11/16 00:53:24;;;;;;;2.92;2.63;;;;;;;;;;4976912;28;20041;-92
2023/11/16 00:55:50;;;;;;;3.55;2.97;;;;;;;;;;4997791;28;20030;-92
2023/11/16 00:58:15;;;;;;;5.05;3.03;;;;;;;;;;4975593;28;20106;-93
2023/11/16 01:00:40;;;;;;;4.25;3.22;;;;;;;;;;4997914;28;20022;-92
2023/11/16 01:03:07;;;;;;;5.47;3.05;;;;;;;;;;4974610;28;20030;-92
2023/11/16 01:05:33;;;;;;;4.25;3.25;;;;;;;;;;4997566;28;20133;-93
2023/11/16 01:07:58;;;;;;;5.85;2.85;;;;;;;;;;4981111;28;20029;-92
2023/11/16 01:10:24;;;;;;;2.88;2.63;;;;;;;;;;4976445;28;20543;-92
2023/11/16 01:12:51;;;;;;;2.47;2.25;;;;;;;;;;4997492;28;20034;-92
2023/11/16 01:15:18;;;;;;;3.42;2.13;;;;;;;;;;4997741;28;20022;-93
2023/11/16 01:17:45;;;;;;;2.05;1.88;;;;;;;;;;4981338;28;20034;-93
2023/11/16 01:20:18;;;;;;;3.40;2.00;;;;;;;;;;4996662;28;20069;-94
2023/11/16 01:23:09;;;;;;;2.75;1.83;;;;;;;;;;5001673;28;20025;-93
2023/11/16 01:25:38;;;;;;;2.05;1.95;;;;;;;;;;5004083;28;20053;-93
2023/11/16 01:28:04;;;;;;;2.17;1.85;;;;;;;;;;5003677;28;20027;-93
2023/11/16 01:30:30;;;;;;;2.08;1.88;;;;;;;;;;5003305;28;20043;-92
2023/11/16 01:32:55;;;;;;;2.10;1.90;;;;;;;;;;5003743;28;20025;-92
2023/11/16 01:35:21;;;;;;;2.20;1.73;;;;;;;;;;5019646;28;20026;-94
2023/11/16 01:37:47;;;;;;;2.42;2.13;;;;;;;;;;5003168;28;20125;-91
2023/11/16 01:40:13;;;;;;;2.45;1.88;;;;;;;;;;5003661;28;20079;-94
2023/11/16 01:42:38;;;;;;;2.03;1.80;;;;;;;;;;5003233;28;20041;-93
2023/11/16 01:45:05;;;;;;;2.80;2.00;;;;;;;;;;5019705;28;20041;-92
2023/11/16 01:47:30;;;;;;;1.85;1.73;;;;;;;;;;5002614;28;20021;-93
2023/11/16 01:49:58;;;;;;;1.83;1.70;;;;;;;;;;5002217;28;20053;-94
2023/11/16 01:52:24;;;;;;;2.17;2.05;;;;;;;;;;5003334;28;20056;-94
2023/11/16 01:54:49;;;;;;;3.08;2.63;;;;;;;;;;5003525;28;20451;-94
2023/11/16 01:57:15;;;;;;;2.25;2.08;;;;;;;;;;5003595;28;20034;-92
2023/11/16 01:59:41;;;;;;;1.83;1.73;;;;;;;;;;5003101;28;20021;-94
2023/11/16 02:02:10;;;;;;;3.25;2.30;;;;;;;;;;5019238;28;20033;-93
2023/11/16 02:04:37;;;;;;;3.40;2.60;;;;;;;;;;5003060;28;20029;-94
2023/11/16 02:07:05;;;;;;;3.80;2.97;;;;;;;;;;5003040;28;20033;-92
2023/11/16 02:09:30;;;;;;;3.17;2.47;;;;;;;;;;5002842;28;20037;-93
2023/11/16 02:11:55;;;;;;;2.33;2.10;;;;;;;;;;5003085;28;20033;-93
2023/11/16 02:14:21;;;;;;;3.38;1.98;;;;;;;;;;5002465;28;20083;-92
2023/11/16 02:16:46;;;;;;;2.33;2.13;;;;;;;;;;5002362;28;20022;-92
2023/11/16 02:19:29;;;;;;;2.65;2.03;;;;;;;;;;5018433;28;20477;-92
2023/11/16 02:21:56;;;;;;;2.40;2.20;;;;;;;;;;5001058;28;20539;-93
2023/11/16 02:24:22;;;;;;;2.60;2.40;;;;;;;;;;5002732;28;20028;-91
2023/11/16 02:26:47;;;;;;;2.40;2.28;;;;;;;;;;5002411;28;20029;-92
2023/11/16 02:29:13;;;;;;;2.83;2.63;;;;;;;;;;5002648;28;20014;-93
2023/11/16 02:31:39;;;;;;;4.68;2.42;;;;;;;;;;5002627;28;20033;-92
2023/11/16 02:34:05;;;;;;;3.50;3.20;;;;;;;;;;5035171;28;20075;-92
2023/11/16 02:36:31;;;;;;;3.80;3.47;;;;;;;;;;5002549;28;20094;-92
2023/11/16 02:38:59;;;;;;;6.45;4.00;;;;;;;;;;5002010;28;20483;-92
2023/11/16 02:41:25;;;;;;;4.95;4.35;;;;;;;;;;5002604;28;20043;-92
2023/11/16 02:43:50;;;;;;;4.85;4.00;;;;;;;;;;5002245;28;20127;-93
2023/11/16 02:46:18;;;;;;;4.68;4.18;;;;;;;;;;5018169;28;20037;-91
2023/11/16 02:48:44;;;;;;;6.25;4.28;;;;;;;;;;5002301;28;20029;-92
2023/11/16 02:51:11;;;;;;;3.95;3.65;;;;;;;;;;5002007;28;20026;-92
2023/11/16 02:53:37;;;;;;;4.40;3.92;;;;;;;;;;5019066;28;20108;-91
2023/11/16 02:56:03;;;;;;;5.05;3.65;;;;;;;;;;5002411;28;20472;-92
2023/11/16 02:58:29;;;;;;;3.75;3.45;;;;;;;;;;5002125;28;20028;-92
2023/11/16 03:00:54;;;;;;;3.65;3.35;;;;;;;;;;5001829;28;20480;-93
2023/11/16 03:03:20;;;;;;;4.00;3.65;;;;;;;;;;5018257;28;20034;-92
2023/11/16 03:05:45;;;;;;;4.20;3.80;;;;;;;;;;5001983;28;20112;-93
2023/11/16 03:08:11;;;;;;;4.07;3.67;;;;;;;;;;5001596;28;20027;-92
2023/11/16 03:10:37;;;;;;;3.65;3.35;;;;;;;;;;5001982;28;20056;-93
2023/11/16 03:13:03;;;;;;;4.13;3.72;;;;;;;;;;5001766;28;20030;-93
2023/11/16 03:15:28;;;;;;;4.15;3.47;;;;;;;;;;5001739;28;20125;-92
2023/11/16 03:17:56;;;;;;;4.38;3.97;;;;;;;;;;5002021;28;20025;-92
2023/11/16 03:20:23;;;;;;;4.47;4.07;;;;;;;;;;5001790;28;20045;-92
2023/11/16 03:22:49;;;;;;;4.53;3.80;;;;;;;;;;5017850;28;20025;-92
2023/11/16 03:25:14;;;;;;;4.32;3.92;;;;;;;;;;5001716;28;20032;-93
2023/11/16 03:27:42;;;;;;;4.57;4.20;;;;;;;;;;5000977;28;20026;-92
2023/11/16 03:30:07;;;;;;;4.72;4.30;;;;;;;;;;5001436;28;20029;-92
2023/11/16 03:32:33;;;;;;;4.60;4.20;;;;;;;;;;5000761;28;20439;-95
2023/11/16 03:34:58;;;;;;;4.22;3.83;;;;;;;;;;5001320;28;20037;-93
2023/11/16 03:37:24;;;;;;;4.28;3.88;;;;;;;;;;5001293;28;20021;-92
2023/11/16 03:39:49;;;;;;;5.78;3.90;;;;;;;;;;5001242;28;20056;-93
2023/11/16 03:42:15;;;;;;;4.22;3.33;;;;;;;;;;5001321;28;20036;-94
2023/11/16 03:44:40;;;;;;;4.72;4.22;;;;;;;;;;5000971;28;20029;-94
2023/11/16 03:47:06;;;;;;;4.55;4.15;;;;;;;;;;5001354;28;20013;-92
2023/11/16 03:49:32;;;;;;;6.28;4.28;;;;;;;;;;5001455;28;20030;-91
2023/11/16 03:51:57;;;;;;;6.68;4.57;;;;;;;;;;5001127;28;20379;-94
2023/11/16 03:54:23;;;;;;;5.18;4.10;;;;;;;;;;5001075;28;20079;-91
2023/11/16 03:56:54;;;;;;;8.10;4.53;;;;;;;;;;5000999;28;20075;-92
2023/11/16 03:59:24;;;;;;;4.55;4.13;;;;;;;;;;5017202;28;20033;-91
2023/11/16 04:01:49;;;;;;;4.67;4.27;;;;;;;;;;5000922;28;20037;-92
2023/11/16 04:04:15;;;;;;;4.88;4.40;;;;;;;;;;5000831;28;20033;-93
2023/11/16 04:06:40;;;;;;;5.90;4.10;;;;;;;;;;5001176;28;20029;-92
2023/11/16 04:09:07;;;;;;;4.65;4.03;;;;;;;;;;5017203;28;20112;-94
2023/11/16 04:11:42;;;;;;;4.75;4.30;;;;;;;;;;5000578;28;20518;-93
2023/11/16 04:14:07;;;;;;;9.63;5.88;;;;;;;;;;5000005;28;20052;-94
2023/11/16 04:16:33;;;;;;;4.50;4.10;;;;;;;;;;5001058;28;20471;-92
2023/11/16 04:19:00;;;;;;;6.65;4.88;;;;;;;;;;5000583;28;20049;-94
2023/11/16 04:21:27;;;;;;;4.35;3.95;;;;;;;;;;5000222;28;20029;-93
2023/11/16 04:23:56;;;;;;;5.22;4.40;;;;;;;;;;5000677;28;20550;-91
2023/11/16 04:26:37;;;;;;;4.10;3.70;;;;;;;;;;5000758;28;20483;-96
2023/11/16 04:29:04;;;;;;;;;;;;;;;;;;5017340;28;20464;-92
2023/11/16 04:31:30;;;;;;;4.25;3.85;;;;;;;;;;5033376;28;19909;-93
2023/11/16 04:33:57;;;;;;;4.95;4.18;;;;;;;;;;5000263;28;20383;-93
2023/11/16 04:36:23;;;;;;;6.38;4.20;;;;;;;;;;5000742;28;20025;-92
2023/11/16 04:38:50;;;;;;;4.95;4.45;;;;;;;;;;5017003;28;20083;-92
2023/11/16 04:41:16;;;;;;;4.68;4.28;;;;;;;;;;5000265;28;20029;-92
2023/11/16 04:47:16;;;;;;;4.95;4.05;;;;;;;;;;5034582;28;20028;-95
2023/11/16 04:49:41;;;;;;;5.07;4.63;;;;;;;;;;5000328;28;20116;-91
2023/11/16 04:52:07;;;;;;;5.03;4.50;;;;;;;;;;4983927;28;20080;-92
2023/11/16 04:54:34;;;;;;;6.10;4.45;;;;;;;;;;5000605;28;20029;-90
2023/11/16 04:56:59;;;;;;;5.90;4.68;;;;;;;;;;4999001;28;20033;-93
2023/11/16 04:59:25;;;;;;;5.80;4.75;;;;;;;;;;5000285;28;20430;-92
2023/11/16 05:01:50;;;;;;;5.90;4.80;;;;;;;;;;4999746;28;20093;-94
2023/11/16 05:04:16;;;;;;;6.82;4.60;;;;;;;;;;4999705;28;20060;-90
2023/11/16 05:06:42;;;;;;;5.25;4.72;;;;;;;;;;5015959;28;20036;-91
2023/11/16 05:09:08;;;;;;;6.72;5.18;;;;;;;;;;4981507;28;20507;-91
2023/11/16 05:11:33;;;;;;;5.85;5.25;;;;;;;;;;4997645;28;20030;-94
2023/11/16 05:13:59;;;;;;;6.05;5.00;;;;;;;;;;4998269;28;20041;-93
2023/11/16 05:16:26;;;;;;;6.55;4.85;;;;;;;;;;4998509;28;20028;-93
2023/11/16 05:23:31;;;;;;;14.75;9.55;;;;;;;;;;5012997;28;20044;-96
2023/11/16 05:26:08;;;;;;;12.77;8.82;;;;;;;;;;4985263;28;20068;-93
2023/11/16 05:28:33;;;;;;;10.45;8.32;;;;;;;;;;4984289;28;20437;-93
2023/11/16 05:30:58;;;;;;;11.68;8.57;;;;;;;;;;5000439;28;20050;-95
2023/11/16 05:33:24;;;;;;;10.68;8.07;;;;;;;;;;4984233;28;20133;-94
2023/11/16 05:35:54;;;;;;;9.00;6.72;;;;;;;;;;5000018;28;20030;-93
2023/11/16 05:38:19;;;;;;;7.80;6.20;;;;;;;;;;4984115;28;20033;-93
2023/11/16 05:40:45;;;;;;;7.60;6.45;;;;;;;;;;4983708;28;20026;-95
2023/11/16 05:43:11;;;;;;;9.30;6.57;;;;;;;;;;4984095;28;20038;-95
2023/11/16 05:45:49;;;;;;;;;;;;;;;;;;;;;
2023/11/16 05:48:22;;;;;;;9.13;6.88;;;;;;;;;;4999605;28;20053;-94
2023/11/16 05:50:50;;;;;;;10.10;6.82;;;;;;;;;;4983492;28;20084;-94
2023/11/16 05:53:19;;;;;;;15.55;9.98;;;;;;;;;;4999951;28;20023;-92
2023/11/16 05:55:45;;;;;;;15.88;8.75;;;;;;;;;;4983507;28;20462;-93
2023/11/16 05:58:38;;;;;;;18.50;11.10;;;;;;;;;;4983211;28;20021;-94
2023/11/16 06:04:09;;;;;;;13.45;9.75;;;;;;;;;;4994904;28;20500;-91
2023/11/16 06:06:48;;;;;;;10.43;7.03;;;;;;;;;;5000768;28;20388;-93
2023/11/16 06:09:14;;;;;;;17.55;12.65;;;;;;;;;;4983378;28;20033;-91
2023/11/16 06:11:40;;;;;;;20.45;13.98;;;;;;;;;;4983106;28;20034;-91
2023/11/16 06:14:08;;;;;;;44.30;22.45;;;;;;;;;;4983129;28;20033;-91
2023/11/16 06:16:33;;;;;;;28.48;15.68;;;;;;;;;;4999302;28;20084;-91
2023/11/16 06:18:59;;;;;;;40.78;19.63;;;;;;;;;;4982913;28;20038;-92
2023/11/16 06:21:25;;;;;;;20.83;11.73;;;;;;;;;;5012871;28;20121;-90
2023/11/16 06:23:50;;;;;;;23.65;13.68;;;;;;;;;;5001118;28;20125;-90
2023/11/16 06:26:17;;;;;;;18.25;12.77;;;;;;;;;;5018632;28;20030;-90
2023/11/16 06:28:43;;;;;;;16.77;11.65;;;;;;;;;;5018656;28;20044;-90
2023/11/16 06:31:09;;;;;;;12.18;9.60;;;;;;;;;;5001434;28;20069;-90
2023/11/16 06:33:34;;;;;;;11.00;8.63;;;;;;;;;;5001373;28;20049;-91
2023/11/16 06:36:00;;;;;;;13.18;8.68;;;;;;;;;;5000252;28;20379;-89
2023/11/16 06:38:29;;;;;;;16.83;11.50;;;;;;;;;;4999976;28;20116;-90
2023/11/16 06:40:55;;;;;;;15.90;9.70;;;;;;;;;;5016661;28;20029;-90
2023/11/16 06:43:23;;;;;;;21.65;13.70;;;;;;;;;;5001221;28;20041;-90
2023/11/16 06:45:48;;;;;;;28.00;21.48;;;;;;;;;;5000142;28;20030;-91
2023/11/16 06:48:15;;;;;;;18.23;14.07;;;;;;;;;;4999716;28;20541;-90
2023/11/16 06:50:41;;;;;;;19.50;13.43;;;;;;;;;;5001311;28;20116;-91
2023/11/16 06:53:09;;;;;;;14.85;10.20;;;;;;;;;;5001901;28;20114;-91
2023/11/16 06:55:35;;;;;;;12.55;9.32;;;;;;;;;;5018308;28;20121;-90
2023/11/16 06:58:03;;;;;;;14.93;10.68;;;;;;;;;;5001904;28;20029;-90
2023/11/16 07:00:30;;;;;;;18.95;14.30;;;;;;;;;;5018605;28;20075;-91
2023/11/16 07:02:56;;;;;;;19.92;12.68;;;;;;;;;;5001625;28;20034;-91
2023/11/16 07:05:21;;;;;;;25.95;14.73;;;;;;;;;;5001689;28;20499;-91
2023/11/16 07:07:47;;;;;;;15.35;11.25;;;;;;;;;;5017964;28;20120;-90
2023/11/16 07:10:12;;;;;;;9.93;7.72;;;;;;;;;;5001628;28;20072;-90
2023/11/16 07:12:42;;;;;;;10.75;7.20;;;;;;;;;;5001328;28;20065;-90
2023/11/16 07:15:08;;;;;;;8.98;6.85;;;;;;;;;;5001527;28;20459;-90
2023/11/16 07:17:34;;;;;;;13.13;9.25;;;;;;;;;;5000928;28;20026;-91
2023/11/16 07:19:59;;;;;;;11.55;8.90;;;;;;;;;;4997703;28;20058;-91
2023/11/16 07:22:31;;;;;;;8.18;6.78;;;;;;;;;;5014594;28;20491;-91
2023/11/16 07:24:56;;;;;;;12.02;9.02;;;;;;;;;;4997897;28;20018;-91
2023/11/16 07:27:22;;;;;;;11.10;7.45;;;;;;;;;;4998021;28;20033;-91
2023/11/16 07:29:48;;;;;;;11.40;7.43;;;;;;;;;;4997876;28;20024;-91
2023/11/16 07:32:15;;;;;;;9.10;7.43;;;;;;;;;;4998071;28;20038;-90
2023/11/16 07:34:43;;;;;;;9.82;7.53;;;;;;;;;;4997982;28;20030;-93
2023/11/16 07:37:09;;;;;;;10.57;8.07;;;;;;;;;;4997927;28;20133;-90
2023/11/16 07:39:34;;;;;;;12.07;9.68;;;;;;;;;;4997913;28;20528;-92
2023/11/16 07:42:00;;;;;;;23.02;13.75;;;;;;;;;;4997799;28;20037;-91
2023/11/16 07:44:26;;;;;;;25.40;13.95;;;;;;;;;;4997874;28;20539;-91
2023/11/16 07:46:52;;;;;;;13.63;9.63;;;;;;;;;;5014012;28;20064;-92
2023/11/16 07:49:17;;;;;;;12.73;8.88;;;;;;;;;;4996885;28;20022;-91
2023/11/16 07:51:43;;;;;;;11.40;8.35;;;;;;;;;;4997577;28;20029;-89
2023/11/16 07:54:11;;;;;;;9.85;8.07;;;;;;;;;;4997814;28;20034;-91
2023/11/16 07:56:38;;;;;;;9.80;6.95;;;;;;;;;;4997686;28;20026;-90
2023/11/16 07:59:03;;;;;;;20.83;10.30;;;;;;;;;;5014205;28;20073;-90
2023/11/16 08:01:38;;;;;;;20.42;10.35;;;;;;;;;;5013849;28;20026;-91
2023/11/16 08:04:04;;;;;;;16.13;10.55;;;;;;;;;;4990123;28;20038;-92
2023/11/16 08:06:31;;;;;;;13.45;8.98;;;;;;;;;;4997223;28;20041;-90
2023/11/16 08:08:56;;;;;;;11.40;9.02;;;;;;;;;;4997819;28;20026;-91
2023/11/16 08:11:22;;;;;;;13.90;10.38;;;;;;;;;;4997445;28;20022;-91
2023/11/16 08:13:47;;;;;;;10.52;8.57;;;;;;;;;;4997115;28;20120;-90
2023/11/16 08:16:16;;;;;;;10.60;8.27;;;;;;;;;;4996909;28;20022;-91
2023/11/16 08:18:44;;;;;;;11.57;7.47;;;;;;;;;;4997177;28;20439;-91
2023/11/16 08:21:10;;;;;;;8.93;7.72;;;;;;;;;;4997065;28;20074;-90
2023/11/16 08:23:41;;;;;;;10.13;7.80;;;;;;;;;;4996964;28;20468;-91
2023/11/16 08:26:09;;;;;;;10.43;7.85;;;;;;;;;;4997561;28;20443;-92
2023/11/16 08:28:35;;;;;;;11.40;8.50;;;;;;;;;;4997317;28;20026;-91
2023/11/16 08:31:01;;;;;;;11.13;8.05;;;;;;;;;;4989185;28;20433;-93
2023/11/16 08:33:26;;;;;;;9.93;7.63;;;;;;;;;;4996836;28;20033;-92
2023/11/16 08:35:53;;;;;;;11.07;8.68;;;;;;;;;;4996832;28;20049;-92
2023/11/16 08:38:19;;;;;;;15.20;10.50;;;;;;;;;;5013653;28;20026;-92
2023/11/16 08:40:45;;;;;;;10.93;8.18;;;;;;;;;;5013772;28;20034;-91
2023/11/16 08:43:11;;;;;;;10.70;8.15;;;;;;;;;;4996764;28;20573;-91
2023/11/16 08:45:37;;;;;;;13.63;10.23;;;;;;;;;;4996988;28;20030;-91
2023/11/16 08:48:03;;;;;;;12.93;9.98;;;;;;;;;;5014497;28;20097;-90
2023/11/16 08:50:33;;;;;;;11.80;8.98;;;;;;;;;;4997085;28;20120;-90
2023/11/16 08:53:00;;;;;;;12.13;8.75;;;;;;;;;;4997066;28;20057;-92
2023/11/16 08:55:26;;;;;;;15.00;10.80;;;;;;;;;;4997225;28;20061;-91
2023/11/16 08:57:52;;;;;;;14.10;9.63;;;;;;;;;;5013405;28;20120;-91
2023/11/16 09:00:28;;;;;;;14.75;11.30;;;;;;;;;;4999714;28;20141;-92
2023/11/16 09:02:57;;;;;;;16.95;12.38;;;;;;;;;;5001046;28;20030;-91
2023/11/16 09:05:24;;;;;;;14.80;10.88;;;;;;;;;;5017255;28;20036;-91
2023/11/16 09:07:50;;;;;;;14.48;9.32;;;;;;;;;;5000748;28;20227;-91
2023/11/16 09:10:19;;;;;;;19.20;12.35;;;;;;;;;;5000749;28;20029;-90
2023/11/16 09:12:45;;;;;;;26.40;13.88;;;;;;;;;;5000605;28;20030;-91
2023/11/16 09:15:11;;;;;;;37.22;19.15;;;;;;;;;;5000376;28;20096;-90
2023/11/16 09:17:37;;;;;;;38.38;19.40;;;;;;;;;;5016877;28;20029;-90
2023/11/16 09:20:05;;;;;;;24.02;14.77;;;;;;;;;;5000023;28;20108;-91
2023/11/16 09:22:36;;;;;;;17.17;11.18;;;;;;;;;;5016782;28;20033;-91
2023/11/16 09:25:02;;;;;;;9.40;8.30;;;;;;;;;;4992415;28;20061;-90
2023/11/16 09:27:29;;;;;;;14.32;11.02;;;;;;;;;;5000233;28;20494;-91
2023/11/16 09:29:55;;;;;;;11.68;9.32;;;;;;;;;;4984167;28;20041;-90
2023/11/16 09:32:21;;;;;;;8.98;8.07;;;;;;;;;;4999569;28;20034;-91
2023/11/16 09:34:48;;;;;;;11.32;7.55;;;;;;;;;;5000052;28;20053;-90
2023/11/16 09:37:14;;;;;;;8.18;6.30;;;;;;;;;;5000130;28;20476;-91
2023/11/16 09:39:40;;;;;;;10.65;8.10;;;;;;;;;;5000044;28;20057;-90
2023/11/16 09:42:07;;;;;;;9.68;6.97;;;;;;;;;;4999915;28;20522;-90
2023/11/16 09:44:34;;;;;;;8.88;6.93;;;;;;;;;;4999880;28;20026;-90
2023/11/16 09:47:02;;;;;;;7.43;6.57;;;;;;;;;;4999820;28;20030;-91
2023/11/16 09:49:32;;;;;;;16.55;10.38;;;;;;;;;;5016332;28;20136;-90
2023/11/16 09:51:59;;;;;;;9.43;7.40;;;;;;;;;;4999483;28;20034;-91
2023/11/16 09:54:28;;;;;;;7.68;6.60;;;;;;;;;;4999510;28;20030;-90
2023/11/16 09:56:54;;;;;;;10.95;7.72;;;;;;;;;;4999699;28;20033;-89
2023/11/16 09:59:34;;;;;;;8.25;6.63;;;;;;;;;;4999528;28;20503;-91
2023/11/16 10:02:09;;;;;;;9.10;6.75;;;;;;;;;;4999875;28;20468;-90
2023/11/16 10:04:41;;;;;;;8.15;6.75;;;;;;;;;;4983526;28;20026;-90
2023/11/16 10:07:10;;;;;;;6.18;5.65;;;;;;;;;;4983562;28;20361;-90
2023/11/16 10:09:42;;;;;;;8.07;6.57;;;;;;;;;;4999541;28;20022;-89
2023/11/16 10:12:09;;;;;;;7.10;5.65;;;;;;;;;;4998355;28;20030;-91
2023/11/16 10:14:39;;;;;;;7.63;6.05;;;;;;;;;;4999249;28;20026;-90
2023/11/16 10:17:04;;;;;;;7.85;5.88;;;;;;;;;;4991997;28;20053;-90
2023/11/16 10:19:30;;;;;;;7.13;5.55;;;;;;;;;;5000416;28;20065;-90
2023/11/16 10:21:57;;;;;;;6.18;4.85;;;;;;;;;;5002350;28;20036;-90
2023/11/16 10:24:22;;;;;;;9.38;7.22;;;;;;;;;;5002379;28;20033;-91
2023/11/16 10:26:54;;;;;;;8.27;5.75;;;;;;;;;;5002122;28;20033;-90
2023/11/16 10:29:20;;;;;;;5.78;4.97;;;;;;;;;;5002398;28;20487;-91
2023/11/16 10:31:47;;;;;;;9.43;7.15;;;;;;;;;;5018750;28;20044;-91
2023/11/16 10:34:15;;;;;;;9.77;7.15;;;;;;;;;;4986146;28;20021;-90
2023/11/16 10:36:43;;;;;;;7.90;5.70;;;;;;;;;;5002344;28;20045;-90
2023/11/16 10:39:11;;;;;;;9.35;6.50;;;;;;;;;;5002362;28;20108;-90
2023/11/16 10:41:39;;;;;;;5.68;5.13;;;;;;;;;;5018499;28;20026;-90
2023/11/16 10:44:05;;;;;;;10.32;7.22;;;;;;;;;;5002127;28;20083;-91
2023/11/16 10:46:31;;;;;;;8.45;7.10;;;;;;;;;;5002258;28;20022;-89
2023/11/16 10:48:57;;;;;;;7.57;6.15;;;;;;;;;;5001986;28;20109;-90
2023/11/16 10:51:24;;;;;;;5.07;4.60;;;;;;;;;;5001858;28;20033;-91
2023/11/16 10:53:52;;;;;;;5.15;4.35;;;;;;;;;;5002039;28;20121;-91
2023/11/16 10:56:17;;;;;;;9.25;6.05;;;;;;;;;;5001573;28;20049;-90
2023/11/16 10:58:44;;;;;;;6.75;6.05;;;;;;;;;;5001813;28;20519;-90
2023/11/16 11:01:12;;;;;;;7.15;5.57;;;;;;;;;;5001726;28;20029;-90
2023/11/16 11:03:42;;;;;;;5.75;4.88;;;;;;;;;;5001799;28;20025;-91
2023/11/16 11:06:12;;;;;;;;;;;;;;;;;;5002054;28;20080;-91
2023/11/16 11:08:38;;;;;;;4.13;3.80;;;;;;;;;;5034673;28;19916;-92
2023/11/16 11:11:04;;;;;;;7.18;4.90;;;;;;;;;;5001911;28;20284;-90
2023/11/16 11:13:32;;;;;;;7.13;4.93;;;;;;;;;;5001759;28;20072;-90
2023/11/16 11:16:04;;;;;;;4.93;4.38;;;;;;;;;;5001636;28;20029;-91
2023/11/16 11:18:31;;;;;;;5.72;4.35;;;;;;;;;;5001627;28;20060;-90
2023/11/16 11:21:09;;;;;;;6.55;4.63;;;;;;;;;;4997931;28;20045;-91
2023/11/16 11:23:37;;;;;;;6.03;4.75;;;;;;;;;;4997950;28;20037;-90
2023/11/16 11:26:13;;;;;;;5.03;4.35;;;;;;;;;;4990332;28;20041;-90
2023/11/16 11:28:42;;;;;;;4.80;3.67;;;;;;;;;;4998242;28;20164;-91
2023/11/16 11:31:10;;;;;;;4.75;3.28;;;;;;;;;;4997872;28;20121;-90
2023/11/16 11:33:37;;;;;;;5.72;4.30;;;;;;;;;;4998071;28;20026;-90
2023/11/16 11:36:07;;;;;;;5.22;4.32;;;;;;;;;;4998051;28;20025;-91
2023/11/16 11:38:36;;;;;;;4.82;3.90;;;;;;;;;;4998369;28;20026;-90
2023/11/16 11:41:09;;;;;;;5.60;4.35;;;;;;;;;;4982329;28;20476;-92
2023/11/16 11:43:39;;;;;;;6.43;4.18;;;;;;;;;;4997887;28;20043;-90
2023/11/16 11:46:09;;;;;;;6.35;4.75;;;;;;;;;;5013432;28;20492;-91
2023/11/16 11:48:38;;;;;;;8.70;5.35;;;;;;;;;;4997614;28;20032;-90
2023/11/16 11:51:05;;;;;;;7.57;5.78;;;;;;;;;;4990057;28;20033;-91
2023/11/16 11:53:32;;;;;;;9.30;5.53;;;;;;;;;;4997829;28;20423;-91
2023/11/16 11:55:59;;;;;;;9.35;6.75;;;;;;;;;;4997478;28;20579;-90
2023/11/16 11:58:25;;;;;;;5.35;4.78;;;;;;;;;;4997572;28;20099;-91
2023/11/16 12:00:51;;;;;;;7.15;4.53;;;;;;;;;;4997358;28;20463;-90
2023/11/16 12:03:17;;;;;;;8.00;4.63;;;;;;;;;;4997743;28;20037;-91
2023/11/16 12:05:54;;;;;;;9.40;5.88;;;;;;;;;;4997606;28;20030;-90
2023/11/16 12:08:38;;;;;;;8.52;6.57;;;;;;;;;;4997072;28;20042;-90
2023/11/16 12:14:53;;;;;;;3.80;3.33;;;;;;;;;;5014032;28;20038;-90
2023/11/16 12:18:05;;;;;;;5.68;3.58;;;;;;;;;;5007829;28;20048;-91
2023/11/16 12:36:57;;;;;;;11.90;6.28;;;;;;;;;;5010708;28;20068;-90
2023/11/16 12:42:17;;;;;;;11.68;6.18;;;;;;;;;;5007715;28;20067;-91
2023/11/16 12:44:54;;;;;;;7.50;4.80;;;;;;;;;;5000850;28;20484;-90
2023/11/16 12:47:21;;;;;;;6.88;4.13;;;;;;;;;;5000353;28;20068;-90
2023/11/16 12:49:47;;;;;;;5.78;4.25;;;;;;;;;;5000473;28;20028;-91
2023/11/16 12:52:15;;;;;;;9.60;6.70;;;;;;;;;;4999826;28;20419;-91
2023/11/16 12:54:40;;;;;;;11.82;8.00;;;;;;;;;;5000127;28;20026;-91
2023/11/16 12:57:09;;;;;;;9.00;6.10;;;;;;;;;;5000648;28;20025;-90
2023/11/16 12:59:35;;;;;;;9.88;5.70;;;;;;;;;;5016300;28;20033;-91
2023/11/16 13:02:01;;;;;;;10.45;7.45;;;;;;;;;;4999548;28;20463;-91
2023/11/16 13:04:28;;;;;;;11.82;8.15;;;;;;;;;;5000225;28;20069;-91
2023/11/16 13:06:57;;;;;;;8.25;6.65;;;;;;;;;;5000866;28;20045;-91
2023/11/16 13:09:24;;;;;;;10.75;8.07;;;;;;;;;;5000045;28;20396;-92
2023/11/16 13:11:50;;;;;;;10.77;7.68;;;;;;;;;;5000068;28;20040;-91
2023/11/16 13:14:18;;;;;;;11.48;6.68;;;;;;;;;;4999252;28;20029;-91
2023/11/16 13:16:43;;;;;;;8.55;6.07;;;;;;;;;;5000058;28;20033;-92
2023/11/16 13:19:10;;;;;;;35.50;26.80;;;;;;;;;;5016242;28;20148;-91
2023/11/16 13:21:39;;;;;;;12.05;10.77;;;;;;;;;;5016614;28;20065;-94
2023/11/16 13:24:08;;;;;;;12.65;8.10;;;;;;;;;;5000201;28;20064;-94
2023/11/16 13:26:37;;;;;;;10.95;7.43;;;;;;;;;;5000616;28;20032;-95
2023/11/16 13:29:09;;;;;;;7.50;6.47;;;;;;;;;;5001782;28;20059;-93
2023/11/16 13:32:12;;;;;;;7.50;6.60;;;;;;;;;;5000080;28;20464;-94
2023/11/16 13:34:41;;;;;;;9.50;7.28;;;;;;;;;;4984277;28;20026;-93
2023/11/16 13:37:07;;;;;;;10.27;6.57;;;;;;;;;;4998376;28;20033;-92
2023/11/16 13:39:33;;;;;;;13.20;9.45;;;;;;;;;;5016462;28;20028;-92
2023/11/16 13:41:59;;;;;;;13.63;9.15;;;;;;;;;;4979800;28;20036;-92
2023/11/16 13:44:25;;;;;;;10.75;5.95;;;;;;;;;;4996513;28;20112;-91
2023/11/16 13:46:51;;;;;;;4.82;2.75;;;;;;;;;;4998202;28;20468;-91
2023/11/16 13:49:19;;;;;;;6.10;3.35;;;;;;;;;;4983696;28;20121;-93
2023/11/16 13:51:48;;;;;;;4.65;3.03;;;;;;;;;;5015637;28;20050;-92
2023/11/16 13:54:13;;;;;;;5.95;3.50;;;;;;;;;;4999659;28;20546;-92
2023/11/16 13:56:48;;;;;;;6.57;4.40;;;;;;;;;;4999370;28;20021;-93
2023/11/16 13:59:20;;;;;;;8.05;4.07;;;;;;;;;;5000103;28;20022;-93
2023/11/16 14:01:54;;;;;;;7.30;4.50;;;;;;;;;;4983068;28;20033;-93
2023/11/16 14:04:43;;;;;;;5.65;4.47;;;;;;;;;;4999987;28;20104;-90
2023/11/16 14:07:09;;;;;;;7.78;5.07;;;;;;;;;;4983683;28;20058;-92
2023/11/16 14:09:35;;;;;;;5.72;4.18;;;;;;;;;;4997894;28;20069;-91
2023/11/16 14:12:01;;;;;;;6.70;4.13;;;;;;;;;;4981751;28;20033;-91
2023/11/16 14:14:27;;;;;;;9.45;5.90;;;;;;;;;;4998379;28;20376;-92
2023/11/16 14:16:52;;;;;;;13.82;7.72;;;;;;;;;;4997586;28;20041;-91
2023/11/16 14:19:21;;;;;;;15.18;7.88;;;;;;;;;;4981219;28;20487;-91
2023/11/16 14:21:46;;;;;;;12.25;7.18;;;;;;;;;;4997551;28;20116;-91
2023/11/16 14:24:12;;;;;;;9.25;5.70;;;;;;;;;;4997908;28;20157;-92
2023/11/16 14:26:41;;;;;;;8.07;5.10;;;;;;;;;;4997402;28;20476;-93
2023/11/16 14:29:09;;;;;;;11.20;7.07;;;;;;;;;;5015623;28;20494;-91
2023/11/16 14:31:34;;;;;;;11.20;8.60;;;;;;;;;;4999276;28;20120;-91
2023/11/16 14:34:00;;;;;;;20.23;12.48;;;;;;;;;;4982943;28;20072;-91
2023/11/16 14:36:25;;;;;;;31.83;20.13;;;;;;;;;;4982662;28;20052;-91
2023/11/16 14:38:51;;;;;;;37.38;22.20;;;;;;;;;;4988175;28;20048;-92
2023/11/16 14:41:16;;;;;;;24.25;14.88;;;;;;;;;;5002120;28;20036;-92
2023/11/16 14:43:50;;;;;;;22.05;11.57;;;;;;;;;;5002047;28;20033;-91
2023/11/16 14:46:19;;;;;;;18.75;11.73;;;;;;;;;;5001617;28;20029;-92
2023/11/16 14:48:45;;;;;;;18.50;10.65;;;;;;;;;;5000851;28;20317;-91
2023/11/16 14:51:16;;;;;;;35.22;21.58;;;;;;;;;;5001057;28;20022;-91
2023/11/16 14:53:44;;;;;;;44.47;28.48;;;;;;;;;;5000818;28;20022;-93
2023/11/16 14:56:11;;;;;;;46.35;29.83;;;;;;;;;;5000817;28;20037;-92
2023/11/16 14:58:38;;;;;;;43.85;31.08;;;;;;;;;;5016908;28;20375;-93
2023/11/16 15:01:24;;;;;;;33.97;23.55;;;;;;;;;;5001101;28;20029;-92
2023/11/16 15:04:02;;;;;;;;;;;;;;;;;;;;;
2023/11/16 15:06:49;;;;;;;124.13;41.78;;;;;;;;;;5017252;28;20033;-91
2023/11/16 15:09:19;;;;;;;41.75;18.23;;;;;;;;;;5001522;28;20030;-93
2023/11/16 15:11:45;;;;;;;10.88;7.35;;;;;;;;;;5001550;28;20041;-90
2023/11/16 15:14:14;;;;;;;11.63;7.28;;;;;;;;;;5001517;28;20025;-92
2023/11/16 15:16:51;;;;;;;9.07;6.68;;;;;;;;;;5017873;28;20038;-93